National Weather Service Raw Text Product

Displaying AFOS PIL: TAFFOD Received: 2018-08-11 07:07 UTC


760 
FTUS43 KDMX 110707 AAC
TAFFOD
TAF AMD
KFOD 110707Z 1107/1206 VRB03KT 1/4SM FG BKN002
     FM111300 VRB02KT 6SM BR FEW200
     FM111400 14004KT P6SM SCT250=